createdAt,value
2018-06-20T00:00:26.209Z,1026.06
2018-06-20T00:01:26.064Z,1026.02
2018-06-20T00:02:26.140Z,1026.03
2018-06-20T00:03:26.028Z,1026.04
2018-06-20T00:04:26.121Z,1026.04
2018-06-20T00:05:26.056Z,1026.02
2018-06-20T00:06:26.258Z,1026.05
2018-06-20T00:07:26.180Z,1026.04
2018-06-20T00:08:26.130Z,1026.07
2018-06-20T00:09:26.067Z,1026.04
2018-06-20T00:10:26.035Z,1026.05
2018-06-20T00:11:26.085Z,1026.08
2018-06-20T00:12:26.215Z,1026.09
2018-06-20T00:13:26.081Z,1026.13
2018-06-20T00:14:26.170Z,1026.16
2018-06-20T00:15:26.194Z,1026.16
2018-06-20T00:16:26.084Z,1026.18
2018-06-20T00:17:26.092Z,1026.16
2018-06-20T00:18:26.173Z,1026.16
2018-06-20T00:19:26.153Z,1026.1
2018-06-20T00:20:26.259Z,1026.11
2018-06-20T00:21:26.120Z,1026.11
2018-06-20T00:22:26.081Z,1026.11
2018-06-20T00:23:26.130Z,1026.1
2018-06-20T00:24:26.181Z,1026.13
2018-06-20T00:25:26.308Z,1026.1
2018-06-20T00:26:26.179Z,1026.07
2018-06-20T00:27:26.174Z,1026.09
2018-06-20T00:28:26.259Z,1026.04
2018-06-20T00:29:26.015Z,1026.1
2018-06-20T00:30:25.993Z,1026.1
2018-06-20T00:31:26.239Z,1026.09
2018-06-20T00:32:26.092Z,1026.12
2018-06-20T00:33:26.329Z,1026.09
2018-06-20T00:34:26.021Z,1026.14
2018-06-20T00:35:26.251Z,1026.11
2018-06-20T00:36:26.211Z,1026.12
2018-06-20T00:37:26.238Z,1026.1
2018-06-20T00:38:26.146Z,1026.11
2018-06-20T00:39:26.092Z,1026.11
2018-06-20T00:40:25.992Z,1026.05
2018-06-20T00:41:26.259Z,1026.07
2018-06-20T00:42:26.163Z,1026.02
2018-06-20T00:43:26.180Z,1026.04
2018-06-20T00:44:26.191Z,1025.99
2018-06-20T00:45:26.384Z,1026.01
2018-06-20T00:46:26.100Z,1026.03
2018-06-20T00:47:26.240Z,1026.01
2018-06-20T00:48:26.314Z,1026.02
2018-06-20T00:49:26.126Z,1026.02
2018-06-20T00:50:26.024Z,1026.05
2018-06-20T00:51:26.046Z,1026.02
2018-06-20T00:52:26.282Z,1026.04
2018-06-20T00:53:26.312Z,1026.05
2018-06-20T00:54:26.133Z,1026.04
2018-06-20T00:55:26.128Z,1026
2018-06-20T00:56:26.280Z,1025.98
2018-06-20T00:57:26.084Z,1025.98
2018-06-20T00:58:26.066Z,1025.95
2018-06-20T00:59:26.050Z,1025.98
2018-06-20T01:00:26.199Z,1025.94
2018-06-20T01:01:26.171Z,1025.96
2018-06-20T01:02:26.190Z,1025.96
2018-06-20T01:03:26.224Z,1025.92
2018-06-20T01:04:26.260Z,1025.95
2018-06-20T01:05:26.073Z,1025.95
2018-06-20T01:06:26.106Z,1026.02
2018-06-20T01:07:26.339Z,1025.94
2018-06-20T01:08:26.080Z,1025.98
2018-06-20T01:09:26.064Z,1025.97
2018-06-20T01:10:26.205Z,1025.95
2018-06-20T01:11:26.387Z,1025.92
2018-06-20T01:12:26.041Z,1025.94
2018-06-20T01:13:26.288Z,1025.93
2018-06-20T01:14:26.177Z,1025.96
2018-06-20T01:15:26.001Z,1025.98
2018-06-20T01:16:26.166Z,1025.94
2018-06-20T01:17:26.011Z,1025.95
2018-06-20T01:18:26.255Z,1025.97
2018-06-20T01:19:26.214Z,1025.96
2018-06-20T01:20:26.154Z,1025.96
2018-06-20T01:21:26.295Z,1025.95
2018-06-20T01:22:26.105Z,1025.95
2018-06-20T01:23:26.290Z,1025.97
2018-06-20T01:24:26.188Z,1025.95
2018-06-20T01:25:26.215Z,1025.93
2018-06-20T01:26:26.029Z,1025.91
2018-06-20T01:27:25.977Z,1025.89
2018-06-20T01:28:26.208Z,1025.86
2018-06-20T01:29:26.172Z,1025.84
2018-06-20T01:30:26.186Z,1025.83
2018-06-20T01:31:26.266Z,1025.81
2018-06-20T01:32:26.146Z,1025.79
2018-06-20T01:33:26.120Z,1025.82
2018-06-20T01:34:26.102Z,1025.81
2018-06-20T01:35:26.025Z,1025.78
2018-06-20T01:36:26.201Z,1025.76
2018-06-20T01:37:26.164Z,1025.75
2018-06-20T01:38:26.136Z,1025.79
2018-06-20T01:39:26.233Z,1025.78
2018-06-20T01:40:26.314Z,1025.77
2018-06-20T01:41:25.990Z,1025.75
2018-06-20T01:42:26.089Z,1025.75
2018-06-20T01:43:26.021Z,1025.77
2018-06-20T01:44:26.070Z,1025.74
2018-06-20T01:45:26.150Z,1025.72
2018-06-20T01:46:26.223Z,1025.72
2018-06-20T01:47:26.205Z,1025.74
2018-06-20T01:48:26.249Z,1025.75
2018-06-20T01:49:26.156Z,1025.78
2018-06-20T01:50:26.083Z,1025.79
2018-06-20T01:51:26.065Z,1025.78
2018-06-20T01:52:26.233Z,1025.77
2018-06-20T01:53:25.968Z,1025.79
2018-06-20T01:54:26.244Z,1025.78
2018-06-20T01:55:26.310Z,1025.72
2018-06-20T01:56:26.139Z,1025.73
2018-06-20T01:57:26.250Z,1025.7
2018-06-20T01:58:26.149Z,1025.73
2018-06-20T01:59:26.005Z,1025.71
2018-06-20T02:00:26.357Z,1025.68
2018-06-20T02:01:26.290Z,1025.73
2018-06-20T02:02:26.017Z,1025.71
2018-06-20T02:03:26.169Z,1025.74
2018-06-20T02:04:26.109Z,1025.73
2018-06-20T02:05:26.372Z,1025.75
2018-06-20T02:06:26.127Z,1025.72
2018-06-20T02:07:26.066Z,1025.73
2018-06-20T02:08:26.267Z,1025.68
2018-06-20T02:09:25.986Z,1025.7
2018-06-20T02:10:26.044Z,1025.73
2018-06-20T02:11:26.148Z,1025.69
2018-06-20T02:12:26.177Z,1025.71
2018-06-20T02:13:26.207Z,1025.71
2018-06-20T02:14:26.252Z,1025.72
2018-06-20T02:15:26.345Z,1025.7
2018-06-20T02:16:26.168Z,1025.71
2018-06-20T02:17:26.259Z,1025.68
2018-06-20T02:18:26.130Z,1025.7
2018-06-20T02:19:26.142Z,1025.64
2018-06-20T02:20:26.014Z,1025.66
2018-06-20T02:21:26.170Z,1025.63
2018-06-20T02:22:26.054Z,1025.59
2018-06-20T02:23:26.214Z,1025.59
2018-06-20T02:24:26.264Z,1025.6
2018-06-20T02:25:26.309Z,1025.59
2018-06-20T02:26:25.968Z,1025.61
2018-06-20T02:27:26.120Z,1025.61
2018-06-20T02:28:26.138Z,1025.66
2018-06-20T02:29:25.999Z,1025.61
2018-06-20T02:30:26.102Z,1025.59
2018-06-20T02:31:26.033Z,1025.66
2018-06-20T02:32:26.207Z,1025.63
2018-06-20T02:33:26.251Z,1025.66
2018-06-20T02:34:26.223Z,1025.64
2018-06-20T02:35:26.208Z,1025.66
2018-06-20T02:36:26.023Z,1025.68
2018-06-20T02:37:26.160Z,1025.69
2018-06-20T02:38:25.938Z,1025.7
2018-06-20T02:39:26.334Z,1025.65
2018-06-20T02:40:26.028Z,1025.68
2018-06-20T02:41:26.125Z,1025.65
2018-06-20T02:42:26.126Z,1025.65
2018-06-20T02:43:26.183Z,1025.66
2018-06-20T02:44:25.984Z,1025.68
2018-06-20T02:45:26.366Z,1025.66
2018-06-20T02:46:26.131Z,1025.67
2018-06-20T02:47:26.102Z,1025.66
2018-06-20T02:48:26.016Z,1025.66
2018-06-20T02:49:26.172Z,1025.62
2018-06-20T02:50:26.087Z,1025.64
2018-06-20T02:51:26.260Z,1025.63
2018-06-20T02:52:26.095Z,1025.55
2018-06-20T02:53:26.176Z,1025.53
2018-06-20T02:54:26.107Z,1025.59
2018-06-20T02:55:26.331Z,1025.58
2018-06-20T02:56:26.125Z,1025.57
2018-06-20T02:57:26.177Z,1025.56
2018-06-20T02:58:26.144Z,1025.57
2018-06-20T02:59:26.061Z,1025.62
2018-06-20T03:00:26.028Z,1025.52
2018-06-20T03:01:26.192Z,1025.57
2018-06-20T03:02:26.150Z,1025.56
2018-06-20T03:03:26.157Z,1025.56
2018-06-20T03:04:26.002Z,1025.57
2018-06-20T03:05:26.041Z,1025.55
2018-06-20T03:06:26.041Z,1025.53
2018-06-20T03:07:26.009Z,1025.56
2018-06-20T03:08:26.067Z,1025.55
2018-06-20T03:09:26.089Z,1025.54
2018-06-20T03:10:26.146Z,1025.58
2018-06-20T03:11:26.036Z,1025.6
2018-06-20T03:12:26.095Z,1025.58
2018-06-20T03:13:26.225Z,1025.54
2018-06-20T03:14:25.955Z,1025.57
2018-06-20T03:15:26.245Z,1025.54
2018-06-20T03:16:26.395Z,1025.54
2018-06-20T03:17:26.013Z,1025.53
2018-06-20T03:18:26.204Z,1025.56
2018-06-20T03:19:26.167Z,1025.55
2018-06-20T03:20:26.220Z,1025.55
2018-06-20T03:21:26.328Z,1025.55
2018-06-20T03:22:26.127Z,1025.51
2018-06-20T03:23:26.014Z,1025.53
2018-06-20T03:24:26.242Z,1025.5
2018-06-20T03:25:26.227Z,1025.49
2018-06-20T03:26:26.035Z,1025.44
2018-06-20T03:27:26.475Z,1025.52
2018-06-20T03:28:25.960Z,1025.5
2018-06-20T03:29:26.062Z,1025.49
2018-06-20T03:30:26.220Z,1025.52
2018-06-20T03:31:26.084Z,1025.53
2018-06-20T03:32:25.956Z,1025.54
2018-06-20T03:33:26.138Z,1025.5
2018-06-20T03:34:26.113Z,1025.51
2018-06-20T03:35:26.223Z,1025.48
2018-06-20T03:36:26.024Z,1025.44
2018-06-20T03:37:26.076Z,1025.45
2018-06-20T03:38:26.194Z,1025.46
2018-06-20T03:39:26.184Z,1025.49
2018-06-20T03:40:26.147Z,1025.43
2018-06-20T03:41:25.915Z,1025.44
2018-06-20T03:42:26.185Z,1025.48
2018-06-20T03:43:26.191Z,1025.47
2018-06-20T03:44:26.086Z,1025.46
2018-06-20T03:45:26.305Z,1025.45
2018-06-20T03:46:26.150Z,1025.44
2018-06-20T03:47:26.127Z,1025.4
2018-06-20T03:48:26.162Z,1025.41
2018-06-20T03:49:26.045Z,1025.4
2018-06-20T03:50:25.995Z,1025.39
2018-06-20T03:51:26.088Z,1025.39
2018-06-20T03:52:26.076Z,1025.39
2018-06-20T03:53:26.132Z,1025.4
2018-06-20T03:54:26.229Z,1025.4
2018-06-20T03:55:26.074Z,1025.37
2018-06-20T03:56:26.182Z,1025.4
2018-06-20T03:57:26.040Z,1025.36
2018-06-20T03:58:26.150Z,1025.38
2018-06-20T03:59:26.002Z,1025.35
2018-06-20T04:00:26.367Z,1025.37
2018-06-20T04:01:26.111Z,1025.39
2018-06-20T04:02:26.544Z,1025.39
2018-06-20T04:03:30.689Z,1025.37
2018-06-20T04:04:26.056Z,1025.34
2018-06-20T04:05:26.594Z,1025.36
2018-06-20T04:06:26.056Z,1025.35
2018-06-20T04:07:26.160Z,1025.37
2018-06-20T04:08:26.272Z,1025.29
2018-06-20T04:09:25.988Z,1025.31
2018-06-20T04:10:26.000Z,1025.33
2018-06-20T04:11:26.121Z,1025.3
2018-06-20T04:12:26.041Z,1025.3
2018-06-20T04:13:26.075Z,1025.33
2018-06-20T04:14:26.163Z,1025.31
2018-06-20T04:15:26.187Z,1025.32
2018-06-20T04:16:26.117Z,1025.34
2018-06-20T04:17:26.188Z,1025.35
2018-06-20T04:18:26.238Z,1025.34
2018-06-20T04:19:25.968Z,1025.35
2018-06-20T04:20:26.255Z,1025.34
2018-06-20T04:21:26.186Z,1025.32
2018-06-20T04:22:26.232Z,1025.34
2018-06-20T04:23:26.094Z,1025.31
2018-06-20T04:24:26.134Z,1025.31
2018-06-20T04:25:26.302Z,1025.32
2018-06-20T04:26:26.168Z,1025.31
2018-06-20T04:27:26.292Z,1025.28
2018-06-20T04:28:25.997Z,1025.3
2018-06-20T04:29:26.161Z,1025.32
2018-06-20T04:30:26.174Z,1025.28
2018-06-20T04:31:26.236Z,1025.27
2018-06-20T04:32:25.986Z,1025.3
2018-06-20T04:33:26.111Z,1025.24
2018-06-20T04:34:26.135Z,1025.27
2018-06-20T04:35:26.019Z,1025.26
2018-06-20T04:36:26.329Z,1025.22
2018-06-20T04:37:25.886Z,1025.23
2018-06-20T04:38:26.193Z,1025.28
2018-06-20T04:39:26.059Z,1025.27
2018-06-20T04:40:26.306Z,1025.26
2018-06-20T04:41:26.191Z,1025.29
2018-06-20T04:42:26.093Z,1025.28
2018-06-20T04:43:26.214Z,1025.27
2018-06-20T04:44:26.163Z,1025.31
2018-06-20T04:45:26.012Z,1025.28
2018-06-20T04:46:26.086Z,1025.27
2018-06-20T04:47:26.060Z,1025.26
2018-06-20T04:48:25.948Z,1025.27
2018-06-20T04:49:26.094Z,1025.25
2018-06-20T04:50:26.081Z,1025.23
2018-06-20T04:51:25.983Z,1025.28
2018-06-20T04:52:26.087Z,1025.25
2018-06-20T04:53:26.055Z,1025.26
2018-06-20T04:54:26.126Z,1025.25
2018-06-20T04:55:36.265Z,1025.26
2018-06-20T04:56:26.111Z,1025.21
2018-06-20T04:57:26.164Z,1025.23
2018-06-20T04:58:25.951Z,1025.27
2018-06-20T04:59:26.131Z,1025.26
2018-06-20T05:00:25.985Z,1025.27
2018-06-20T05:01:25.984Z,1025.25
2018-06-20T05:02:26.148Z,1025.29
2018-06-20T05:03:25.978Z,1025.29
2018-06-20T05:04:26.170Z,1025.35
2018-06-20T05:05:26.144Z,1025.29
2018-06-20T05:06:26.090Z,1025.34
2018-06-20T05:07:26.007Z,1025.31
2018-06-20T05:08:26.079Z,1025.28
2018-06-20T05:09:26.126Z,1025.31
2018-06-20T05:10:26.262Z,1025.27
2018-06-20T05:11:26.129Z,1025.26
2018-06-20T05:12:26.080Z,1025.26
2018-06-20T05:13:25.956Z,1025.31
2018-06-20T05:14:26.228Z,1025.29
2018-06-20T05:15:26.133Z,1025.27
2018-06-20T05:16:26.000Z,1025.3
2018-06-20T05:17:26.044Z,1025.31
2018-06-20T05:18:26.374Z,1025.29
2018-06-20T05:19:26.268Z,1025.25
2018-06-20T05:20:26.104Z,1025.28
2018-06-20T05:21:26.152Z,1025.31
2018-06-20T05:22:26.222Z,1025.25
2018-06-20T05:23:26.276Z,1025.28
2018-06-20T05:24:26.203Z,1025.33
2018-06-20T05:25:26.006Z,1025.29
2018-06-20T05:26:26.018Z,1025.31
2018-06-20T05:27:26.539Z,1025.33
2018-06-20T05:28:26.311Z,1025.32
2018-06-20T05:29:26.073Z,1025.3
2018-06-20T05:30:26.043Z,1025.3
2018-06-20T05:31:26.216Z,1025.32
2018-06-20T05:32:26.017Z,1025.33
2018-06-20T05:33:26.027Z,1025.34
2018-06-20T05:34:26.011Z,1025.31
2018-06-20T05:35:26.107Z,1025.3
2018-06-20T05:36:26.351Z,1025.33
2018-06-20T05:37:26.007Z,1025.29
2018-06-20T05:38:26.111Z,1025.35
2018-06-20T05:39:26.376Z,1025.3
2018-06-20T05:40:25.946Z,1025.31
2018-06-20T05:41:26.316Z,1025.29
2018-06-20T05:42:25.988Z,1025.32
2018-06-20T05:43:26.043Z,1025.33
2018-06-20T05:44:25.971Z,1025.32
2018-06-20T05:45:25.988Z,1025.28
2018-06-20T05:46:26.082Z,1025.27
2018-06-20T05:47:26.116Z,1025.29
2018-06-20T05:48:26.252Z,1025.26
2018-06-20T05:49:25.999Z,1025.32
2018-06-20T05:50:26.001Z,1025.27
2018-06-20T05:51:26.045Z,1025.27
2018-06-20T05:52:26.052Z,1025.27
2018-06-20T05:53:25.991Z,1025.29
2018-06-20T05:54:25.939Z,1025.3
2018-06-20T05:55:26.173Z,1025.31
2018-06-20T05:56:26.072Z,1025.31
2018-06-20T05:57:26.191Z,1025.26
2018-06-20T05:58:26.014Z,1025.28
2018-06-20T05:59:26.173Z,1025.3
2018-06-20T06:00:26.080Z,1025.3
2018-06-20T06:01:26.173Z,1025.24
2018-06-20T06:02:26.099Z,1025.29
2018-06-20T06:03:25.937Z,1025.26
2018-06-20T06:04:25.997Z,1025.29
2018-06-20T06:05:26.034Z,1025.31
2018-06-20T06:06:26.246Z,1025.31
2018-06-20T06:07:26.098Z,1025.28
2018-06-20T06:08:26.073Z,1025.29
2018-06-20T06:09:25.999Z,1025.28
2018-06-20T06:10:26.092Z,1025.29
2018-06-20T06:11:25.935Z,1025.27
2018-06-20T06:12:25.980Z,1025.26
2018-06-20T06:13:26.071Z,1025.25
2018-06-20T06:14:26.001Z,1025.23
2018-06-20T06:15:26.351Z,1025.25
2018-06-20T06:16:26.179Z,1025.27
2018-06-20T06:17:26.169Z,1025.23
2018-06-20T06:18:26.308Z,1025.25
2018-06-20T06:19:26.191Z,1025.2
2018-06-20T06:20:26.096Z,1025.22
2018-06-20T06:21:36.082Z,1025.22
2018-06-20T06:22:26.235Z,1025.19
2018-06-20T06:23:25.997Z,1025.24
2018-06-20T06:24:26.075Z,1025.28
2018-06-20T06:25:25.916Z,1025.24
2018-06-20T06:26:25.987Z,1025.23
2018-06-20T06:27:26.000Z,1025.27
2018-06-20T06:28:26.116Z,1025.26
2018-06-20T06:29:26.296Z,1025.25
2018-06-20T06:30:26.150Z,1025.21
2018-06-20T06:31:25.998Z,1025.27
2018-06-20T06:32:25.938Z,1025.22
2018-06-20T06:33:26.136Z,1025.21
2018-06-20T06:34:26.154Z,1025.19
2018-06-20T06:35:26.021Z,1025.19
2018-06-20T06:36:26.068Z,1025.2
2018-06-20T06:37:26.219Z,1025.19
2018-06-20T06:38:26.028Z,1025.17
2018-06-20T06:39:25.996Z,1025.17
2018-06-20T06:40:26.259Z,1025.17
2018-06-20T06:41:26.013Z,1025.14
2018-06-20T06:42:26.088Z,1025.09
2018-06-20T06:43:26.014Z,1025.1
2018-06-20T06:44:26.099Z,1025.08
2018-06-20T06:45:26.039Z,1025.09
2018-06-20T06:46:26.064Z,1025.03
2018-06-20T06:47:26.154Z,1025.07
2018-06-20T06:48:26.141Z,1025.07
2018-06-20T06:49:26.115Z,1025.05
2018-06-20T06:50:26.287Z,1025.06
2018-06-20T06:51:26.058Z,1025.02
2018-06-20T06:52:26.089Z,1025.06
2018-06-20T06:53:26.075Z,1025.08
2018-06-20T06:54:26.071Z,1025.07
2018-06-20T06:55:26.122Z,1025.09
2018-06-20T06:56:26.091Z,1025.08
2018-06-20T06:57:26.166Z,1025.07
2018-06-20T06:58:26.106Z,1025.06
2018-06-20T06:59:26.088Z,1025.05
2018-06-20T07:00:26.117Z,1025.07
2018-06-20T07:01:26.133Z,1025.04
2018-06-20T07:02:26.068Z,1025.03
2018-06-20T07:03:36.131Z,1025.04
2018-06-20T07:04:26.156Z,1025.03
2018-06-20T07:05:26.163Z,1024.98
2018-06-20T07:06:26.124Z,1025.02
2018-06-20T07:07:26.168Z,1024.98
2018-06-20T07:08:26.197Z,1024.98
2018-06-20T07:09:26.191Z,1024.96
2018-06-20T07:10:26.190Z,1025.01
2018-06-20T07:11:26.189Z,1024.95
2018-06-20T07:12:26.277Z,1024.98
2018-06-20T07:13:26.219Z,1024.97
2018-06-20T07:14:26.219Z,1024.95
2018-06-20T07:15:26.362Z,1024.93
2018-06-20T07:16:26.233Z,1024.93
2018-06-20T07:17:26.244Z,1024.95
2018-06-20T07:18:26.227Z,1024.94
2018-06-20T07:19:26.242Z,1024.86
2018-06-20T07:20:26.006Z,1024.91
2018-06-20T07:21:26.287Z,1024.89
2018-06-20T07:22:26.278Z,1024.88
2018-06-20T07:23:26.288Z,1024.86
2018-06-20T07:24:26.991Z,1024.89
2018-06-20T07:25:26.294Z,1024.88
2018-06-20T07:26:36.262Z,1024.85
2018-06-20T07:27:26.304Z,1024.85
2018-06-20T07:28:26.081Z,1024.85
2018-06-20T07:29:26.505Z,1024.84
2018-06-20T07:30:26.325Z,1024.85
2018-06-20T07:31:26.321Z,1024.82
2018-06-20T07:32:26.432Z,1024.83
2018-06-20T07:33:26.328Z,1024.82
2018-06-20T07:34:26.322Z,1024.82
2018-06-20T07:35:26.552Z,1024.79
2018-06-20T07:36:26.759Z,1024.79
2018-06-20T07:37:26.374Z,1024.77
2018-06-20T07:38:26.084Z,1024.77
2018-06-20T07:39:26.340Z,1024.79
2018-06-20T07:40:26.734Z,1024.74
2018-06-20T07:41:26.378Z,1024.73
2018-06-20T07:42:26.398Z,1024.74
2018-06-20T07:43:26.372Z,1024.69
2018-06-20T07:44:26.763Z,1024.7
2018-06-20T07:45:26.415Z,1024.72
2018-06-20T07:46:25.940Z,1024.74
2018-06-20T07:47:36.100Z,1024.69
2018-06-20T07:48:26.203Z,1024.7
2018-06-20T07:49:26.397Z,1024.65
2018-06-20T07:50:25.940Z,1024.66
2018-06-20T07:51:26.528Z,1024.64
2018-06-20T07:52:26.227Z,1024.65
2018-06-20T07:53:26.440Z,1024.62
2018-06-20T07:54:25.984Z,1024.66
2018-06-20T07:55:25.949Z,1024.66
2018-06-20T07:56:26.433Z,1024.66
2018-06-20T07:57:26.260Z,1024.67
2018-06-20T07:58:26.019Z,1024.64
2018-06-20T07:59:25.862Z,1024.58
2018-06-20T08:00:26.434Z,1024.61
2018-06-20T08:01:26.237Z,1024.59
2018-06-20T08:02:26.285Z,1024.59
2018-06-20T08:03:26.276Z,1024.55
2018-06-20T08:04:25.963Z,1024.55
2018-06-20T08:05:26.282Z,1024.54
2018-06-20T08:06:26.264Z,1024.55
2018-06-20T08:07:26.537Z,1024.57
2018-06-20T08:08:26.026Z,1024.52
2018-06-20T08:09:25.930Z,1024.52
2018-06-20T08:10:26.010Z,1024.5
2018-06-20T08:11:26.237Z,1024.43
2018-06-20T08:12:26.189Z,1024.49
2018-06-20T08:13:26.311Z,1024.44
2018-06-20T08:14:26.113Z,1024.46
2018-06-20T08:15:26.081Z,1024.5
2018-06-20T08:16:26.127Z,1024.45
2018-06-20T08:17:25.963Z,1024.44
2018-06-20T08:18:26.002Z,1024.44
2018-06-20T08:19:25.857Z,1024.41
2018-06-20T08:20:26.088Z,1024.38
2018-06-20T08:21:26.015Z,1024.35
2018-06-20T08:22:26.124Z,1024.37
2018-06-20T08:23:26.015Z,1024.36
2018-06-20T08:24:26.015Z,1024.34
2018-06-20T08:25:26.181Z,1024.35
2018-06-20T08:26:25.928Z,1024.33
2018-06-20T08:27:25.952Z,1024.34
2018-06-20T08:28:26.210Z,1024.32
2018-06-20T08:29:26.152Z,1024.28
2018-06-20T08:30:25.975Z,1024.32
2018-06-20T08:31:26.066Z,1024.28
2018-06-20T08:32:26.025Z,1024.25
2018-06-20T08:33:26.095Z,1024.23
2018-06-20T08:34:26.020Z,1024.27
2018-06-20T08:35:25.968Z,1024.26
2018-06-20T08:36:26.054Z,1024.29
2018-06-20T08:37:26.038Z,1024.26
2018-06-20T08:38:26.173Z,1024.26
2018-06-20T08:39:26.108Z,1024.27
2018-06-20T08:40:25.942Z,1024.28
2018-06-20T08:41:25.986Z,1024.26
2018-06-20T08:42:26.277Z,1024.27
2018-06-20T08:43:25.905Z,1024.31
2018-06-20T08:44:26.038Z,1024.28
2018-06-20T08:45:26.152Z,1024.3
2018-06-20T08:46:26.226Z,1024.23
2018-06-20T08:47:26.041Z,1024.26
2018-06-20T08:48:25.948Z,1024.23
2018-06-20T08:49:26.206Z,1024.26
2018-06-20T08:50:26.117Z,1024.24
2018-06-20T08:51:25.940Z,1024.24
2018-06-20T08:52:26.073Z,1024.22
2018-06-20T08:53:26.035Z,1024.26
2018-06-20T08:54:26.073Z,1024.24
2018-06-20T08:56:03.020Z,1024.24
2018-06-20T08:56:26.003Z,1024.27
2018-06-20T08:57:26.235Z,1024.26
2018-06-20T08:58:26.116Z,1024.23
2018-06-20T08:59:25.897Z,1024.24
2018-06-20T09:00:25.943Z,1024.22
2018-06-20T09:01:26.162Z,1024.23
2018-06-20T09:02:26.084Z,1024.17
2018-06-20T09:03:26.145Z,1024.21
2018-06-20T09:04:26.043Z,1024.2
2018-06-20T09:05:26.212Z,1024.2
2018-06-20T09:06:25.966Z,1024.19
2018-06-20T09:07:26.078Z,1024.22
2018-06-20T09:08:26.102Z,1024.16
2018-06-20T09:09:25.977Z,1024.12
2018-06-20T09:10:26.200Z,1024.08
2018-06-20T09:11:25.993Z,1024.12
2018-06-20T09:12:26.025Z,1024.13
2018-06-20T09:13:26.041Z,1024.08
2018-06-20T09:14:26.213Z,1024.13
2018-06-20T09:15:26.194Z,1024.1
2018-06-20T09:16:25.909Z,1024.09
2018-06-20T09:17:26.028Z,1024.12
2018-06-20T09:18:26.121Z,1024.15
2018-06-20T09:19:26.152Z,1024.1
2018-06-20T09:20:26.074Z,1024.12
2018-06-20T09:21:25.984Z,1024.1
2018-06-20T09:22:26.005Z,1024.09
2018-06-20T09:23:26.122Z,1024.09
2018-06-20T09:24:25.936Z,1024.06
2018-06-20T09:25:26.099Z,1024.1
2018-06-20T09:26:26.035Z,1024.06
2018-06-20T09:27:25.898Z,1024.06
2018-06-20T09:28:26.148Z,1024.06
2018-06-20T09:29:26.041Z,1024.08
2018-06-20T09:30:25.949Z,1024.06
2018-06-20T09:31:26.005Z,1024.05
2018-06-20T09:32:25.945Z,1024.03
2018-06-20T09:33:26.059Z,1024.02
2018-06-20T09:34:26.142Z,1024.07
2018-06-20T09:35:26.251Z,1024.05
2018-06-20T09:36:25.973Z,1024.01
2018-06-20T09:37:26.008Z,1024.01
2018-06-20T09:38:25.930Z,1024.04
2018-06-20T09:39:26.165Z,1024.02
2018-06-20T09:40:26.130Z,1024.01
2018-06-20T09:41:25.997Z,1023.98
2018-06-20T09:42:26.178Z,1023.98
2018-06-20T09:43:25.986Z,1023.99
2018-06-20T09:44:26.033Z,1024.01
2018-06-20T09:45:25.936Z,1024
2018-06-20T09:46:25.994Z,1024.01
2018-06-20T09:47:25.979Z,1023.97
2018-06-20T09:48:26.345Z,1023.95
2018-06-20T09:49:26.087Z,1023.94
2018-06-20T09:50:26.023Z,1023.92
2018-06-20T09:51:26.065Z,1023.94
2018-06-20T09:52:26.091Z,1023.87
2018-06-20T09:53:26.021Z,1023.91
2018-06-20T09:54:26.075Z,1023.9
2018-06-20T09:55:26.109Z,1023.84
2018-06-20T09:56:26.124Z,1023.88
2018-06-20T09:57:26.114Z,1023.9
2018-06-20T09:58:26.205Z,1023.87
2018-06-20T09:59:25.951Z,1023.87
2018-06-20T10:00:26.082Z,1023.85
2018-06-20T10:01:26.244Z,1023.88
2018-06-20T10:02:26.196Z,1023.87
2018-06-20T10:03:26.145Z,1023.87
2018-06-20T10:04:26.027Z,1023.86
2018-06-20T10:05:25.952Z,1023.85
2018-06-20T10:06:26.258Z,1023.82
2018-06-20T10:07:26.073Z,1023.81
2018-06-20T10:08:26.059Z,1023.78
2018-06-20T10:09:27.374Z,1023.8
2018-06-20T10:10:26.124Z,1023.8
2018-06-20T10:11:25.999Z,1023.78
2018-06-20T10:12:26.043Z,1023.77
2018-06-20T10:13:25.910Z,1023.74
2018-06-20T10:14:25.839Z,1023.73
2018-06-20T10:15:26.178Z,1023.77
2018-06-20T10:16:26.134Z,1023.7
2018-06-20T10:17:26.050Z,1023.72
2018-06-20T10:18:26.097Z,1023.7
2018-06-20T10:19:26.055Z,1023.65
2018-06-20T10:20:26.156Z,1023.66
2018-06-20T10:21:26.265Z,1023.67
2018-06-20T10:22:26.039Z,1023.68
2018-06-20T10:23:25.973Z,1023.67
2018-06-20T10:24:26.000Z,1023.67
2018-06-20T10:25:26.052Z,1023.63
2018-06-20T10:26:26.048Z,1023.59
2018-06-20T10:27:26.069Z,1023.58
2018-06-20T10:28:26.071Z,1023.6
2018-06-20T10:29:26.023Z,1023.58
2018-06-20T10:30:26.082Z,1023.57
2018-06-20T10:31:26.071Z,1023.56
2018-06-20T10:32:25.898Z,1023.61
2018-06-20T10:33:26.061Z,1023.58
2018-06-20T10:34:26.028Z,1023.54
2018-06-20T10:35:26.093Z,1023.53
2018-06-20T10:36:25.981Z,1023.48
2018-06-20T10:37:26.082Z,1023.51
2018-06-20T10:38:26.062Z,1023.51
2018-06-20T10:39:26.094Z,1023.49
2018-06-20T10:40:26.089Z,1023.52
2018-06-20T10:41:25.872Z,1023.46
2018-06-20T10:42:26.044Z,1023.46
2018-06-20T10:43:26.036Z,1023.48
2018-06-20T10:44:26.025Z,1023.48
2018-06-20T10:45:26.068Z,1023.45
2018-06-20T10:46:26.719Z,1023.48
2018-06-20T10:47:26.085Z,1023.39
2018-06-20T10:48:25.998Z,1023.37
2018-06-20T10:49:26.244Z,1023.39
2018-06-20T10:50:26.019Z,1023.36
2018-06-20T10:51:26.159Z,1023.39
2018-06-20T10:52:26.014Z,1023.36
2018-06-20T10:53:25.896Z,1023.34
2018-06-20T10:54:26.181Z,1023.35
2018-06-20T10:55:26.253Z,1023.36
2018-06-20T10:56:26.008Z,1023.37
2018-06-20T10:57:26.213Z,1023.36
2018-06-20T10:58:25.933Z,1023.31
2018-06-20T10:59:25.943Z,1023.29
2018-06-20T11:00:26.262Z,1023.3
2018-06-20T11:01:26.163Z,1023.25
2018-06-20T11:02:25.945Z,1023.31
2018-06-20T11:03:26.185Z,1023.26
2018-06-20T11:04:26.111Z,1023.24
2018-06-20T11:05:25.949Z,1023.24
2018-06-20T11:06:26.133Z,1023.23
2018-06-20T11:07:26.075Z,1023.23
2018-06-20T11:08:26.021Z,1023.17
2018-06-20T11:09:26.133Z,1023.16
2018-06-20T11:10:25.948Z,1023.16
2018-06-20T11:11:26.043Z,1023.14
2018-06-20T11:12:26.104Z,1023.13
2018-06-20T11:13:26.094Z,1023.14
2018-06-20T11:14:25.947Z,1023.13
2018-06-20T11:15:26.327Z,1023.14
2018-06-20T11:16:25.949Z,1023.1
2018-06-20T11:17:25.892Z,1023.04
2018-06-20T11:18:25.968Z,1023.07
2018-06-20T11:19:26.109Z,1023.03
2018-06-20T11:20:26.072Z,1023.05
2018-06-20T11:21:26.044Z,1023.01
2018-06-20T11:22:26.099Z,1023.03
2018-06-20T11:23:26.034Z,1023.01
2018-06-20T11:24:25.888Z,1022.96
2018-06-20T11:25:26.007Z,1022.99
2018-06-20T11:26:35.911Z,1022.99
2018-06-20T11:27:26.114Z,1022.94
2018-06-20T11:28:25.946Z,1022.9
2018-06-20T11:29:25.863Z,1022.91
2018-06-20T11:30:26.041Z,1022.88
2018-06-20T11:31:26.088Z,1022.9
2018-06-20T11:32:26.147Z,1022.89
2018-06-20T11:33:26.150Z,1022.87
2018-06-20T11:34:26.056Z,1022.85
2018-06-20T11:35:26.025Z,1022.8
2018-06-20T11:36:26.105Z,1022.8
2018-06-20T11:37:25.894Z,1022.78
2018-06-20T11:38:25.881Z,1022.81
2018-06-20T11:39:26.099Z,1022.74
2018-06-20T11:40:25.940Z,1022.75
2018-06-20T11:41:26.037Z,1022.73
2018-06-20T11:42:25.971Z,1022.74
2018-06-20T11:43:26.072Z,1022.71
2018-06-20T11:44:25.952Z,1022.71
2018-06-20T11:45:25.943Z,1022.73
2018-06-20T11:46:26.107Z,1022.68
2018-06-20T11:47:25.816Z,1022.63
2018-06-20T11:48:26.037Z,1022.6
2018-06-20T11:49:25.900Z,1022.62
2018-06-20T11:50:25.919Z,1022.58
2018-06-20T11:51:26.158Z,1022.59
2018-06-20T11:52:25.935Z,1022.56
2018-06-20T11:53:25.877Z,1022.57
2018-06-20T11:54:26.311Z,1022.56
2018-06-20T11:55:25.946Z,1022.53
2018-06-20T11:56:25.921Z,1022.54
2018-06-20T11:57:26.019Z,1022.51
2018-06-20T11:58:25.919Z,1022.51
2018-06-20T11:59:26.055Z,1022.49
2018-06-20T12:00:26.180Z,1022.48
2018-06-20T12:01:26.106Z,1022.5
2018-06-20T12:02:26.001Z,1022.5
2018-06-20T12:03:26.012Z,1022.51
2018-06-20T12:04:26.089Z,1022.46
2018-06-20T12:05:25.967Z,1022.45
2018-06-20T12:06:26.067Z,1022.46
2018-06-20T12:07:25.831Z,1022.45